sensor_id;sensor_type;location;lat;lon;timestamp;P1;durP1;ratioP1;P2;durP2;ratioP2
51495;SDS011;37572;52.094;4.870;2024-02-21T00:00:55;12.25;;;3.90;;
51495;SDS011;37572;52.094;4.870;2024-02-21T00:03:21;13.45;;;3.72;;
51495;SDS011;37572;52.094;4.870;2024-02-21T00:05:46;12.93;;;3.28;;
51495;SDS011;37572;52.094;4.870;2024-02-21T00:08:11;9.53;;;3.83;;
51495;SDS011;37572;52.094;4.870;2024-02-21T00:10:37;10.48;;;3.50;;
51495;SDS011;37572;52.094;4.870;2024-02-21T00:13:02;13.45;;;3.47;;
51495;SDS011;37572;52.094;4.870;2024-02-21T00:15:28;9.10;;;2.88;;
51495;SDS011;37572;52.094;4.870;2024-02-21T00:17:53;12.13;;;3.20;;
51495;SDS011;37572;52.094;4.870;2024-02-21T00:20:19;13.37;;;3.63;;
51495;SDS011;37572;52.094;4.870;2024-02-21T00:22:45;13.00;;;3.28;;
51495;SDS011;37572;52.094;4.870;2024-02-21T00:25:10;10.73;;;3.45;;
51495;SDS011;37572;52.094;4.870;2024-02-21T00:27:35;17.10;;;3.53;;
51495;SDS011;37572;52.094;4.870;2024-02-21T00:30:01;9.60;;;3.30;;
51495;SDS011;37572;52.094;4.870;2024-02-21T00:32:27;14.15;;;3.33;;
51495;SDS011;37572;52.094;4.870;2024-02-21T00:34:52;9.15;;;2.58;;
51495;SDS011;37572;52.094;4.870;2024-02-21T00:37:17;10.83;;;3.20;;
51495;SDS011;37572;52.094;4.870;2024-02-21T00:39:43;11.60;;;4.13;;
51495;SDS011;37572;52.094;4.870;2024-02-21T00:42:08;14.43;;;3.03;;
51495;SDS011;37572;52.094;4.870;2024-02-21T00:44:33;10.87;;;2.40;;
51495;SDS011;37572;52.094;4.870;2024-02-21T00:46:59;13.98;;;2.78;;
51495;SDS011;37572;52.094;4.870;2024-02-21T00:49:24;12.80;;;3.55;;
51495;SDS011;37572;52.094;4.870;2024-02-21T00:51:49;13.87;;;3.33;;
51495;SDS011;37572;52.094;4.870;2024-02-21T00:54:15;7.68;;;2.42;;
51495;SDS011;37572;52.094;4.870;2024-02-21T00:56:41;11.00;;;3.35;;
51495;SDS011;37572;52.094;4.870;2024-02-21T00:59:06;13.15;;;3.25;;
51495;SDS011;37572;52.094;4.870;2024-02-21T01:01:31;13.63;;;2.90;;
51495;SDS011;37572;52.094;4.870;2024-02-21T01:03:57;10.33;;;3.80;;
51495;SDS011;37572;52.094;4.870;2024-02-21T01:06:22;12.33;;;3.47;;
51495;SDS011;37572;52.094;4.870;2024-02-21T01:08:48;11.35;;;3.53;;
51495;SDS011;37572;52.094;4.870;2024-02-21T01:11:14;11.30;;;3.40;;
51495;SDS011;37572;52.094;4.870;2024-02-21T01:13:40;7.82;;;3.72;;
51495;SDS011;37572;52.094;4.870;2024-02-21T01:16:05;13.10;;;4.03;;
51495;SDS011;37572;52.094;4.870;2024-02-21T01:18:32;11.60;;;4.10;;
51495;SDS011;37572;52.094;4.870;2024-02-21T01:20:58;14.15;;;4.15;;
51495;SDS011;37572;52.094;4.870;2024-02-21T01:23:24;12.82;;;3.90;;
51495;SDS011;37572;52.094;4.870;2024-02-21T01:25:49;13.20;;;4.43;;
51495;SDS011;37572;52.094;4.870;2024-02-21T01:28:14;9.43;;;3.55;;
51495;SDS011;37572;52.094;4.870;2024-02-21T01:30:40;11.97;;;3.67;;
51495;SDS011;37572;52.094;4.870;2024-02-21T01:33:05;8.70;;;4.07;;
51495;SDS011;37572;52.094;4.870;2024-02-21T01:35:30;10.98;;;4.50;;
51495;SDS011;37572;52.094;4.870;2024-02-21T01:37:56;11.93;;;3.57;;
51495;SDS011;37572;52.094;4.870;2024-02-21T01:40:21;18.40;;;4.20;;
51495;SDS011;37572;52.094;4.870;2024-02-21T01:42:46;14.77;;;3.73;;
51495;SDS011;37572;52.094;4.870;2024-02-21T01:45:13;7.82;;;3.05;;
51495;SDS011;37572;52.094;4.870;2024-02-21T01:47:39;11.20;;;3.40;;
51495;SDS011;37572;52.094;4.870;2024-02-21T01:50:05;11.23;;;3.13;;
51495;SDS011;37572;52.094;4.870;2024-02-21T01:52:30;12.00;;;3.38;;
51495;SDS011;37572;52.094;4.870;2024-02-21T01:54:57;12.40;;;3.35;;
51495;SDS011;37572;52.094;4.870;2024-02-21T01:57:22;14.45;;;3.55;;
51495;SDS011;37572;52.094;4.870;2024-02-21T01:59:48;12.07;;;3.15;;
51495;SDS011;37572;52.094;4.870;2024-02-21T02:02:14;15.05;;;4.32;;
51495;SDS011;37572;52.094;4.870;2024-02-21T02:04:41;12.23;;;3.45;;
51495;SDS011;37572;52.094;4.870;2024-02-21T02:07:07;13.30;;;3.28;;
51495;SDS011;37572;52.094;4.870;2024-02-21T02:09:33;11.35;;;3.42;;
51495;SDS011;37572;52.094;4.870;2024-02-21T02:11:58;9.85;;;2.47;;
51495;SDS011;37572;52.094;4.870;2024-02-21T02:14:24;13.75;;;4.63;;
51495;SDS011;37572;52.094;4.870;2024-02-21T02:16:49;11.43;;;3.50;;
51495;SDS011;37572;52.094;4.870;2024-02-21T02:19:15;8.57;;;3.93;;
51495;SDS011;37572;52.094;4.870;2024-02-21T02:21:42;8.90;;;3.55;;
51495;SDS011;37572;52.094;4.870;2024-02-21T02:24:21;10.02;;;3.78;;
51495;SDS011;37572;52.094;4.870;2024-02-21T02:26:48;10.27;;;4.25;;
51495;SDS011;37572;52.094;4.870;2024-02-21T02:29:14;11.93;;;3.60;;
51495;SDS011;37572;52.094;4.870;2024-02-21T02:31:39;14.47;;;4.33;;
51495;SDS011;37572;52.094;4.870;2024-02-21T02:34:05;15.77;;;4.45;;
51495;SDS011;37572;52.094;4.870;2024-02-21T02:36:32;12.32;;;4.30;;
51495;SDS011;37572;52.094;4.870;2024-02-21T02:38:58;13.48;;;3.83;;
51495;SDS011;37572;52.094;4.870;2024-02-21T02:41:23;12.43;;;4.10;;
51495;SDS011;37572;52.094;4.870;2024-02-21T02:43:48;12.33;;;3.50;;
51495;SDS011;37572;52.094;4.870;2024-02-21T02:46:14;12.97;;;5.03;;
51495;SDS011;37572;52.094;4.870;2024-02-21T02:48:39;13.97;;;5.63;;
51495;SDS011;37572;52.094;4.870;2024-02-21T02:51:04;11.43;;;4.53;;
51495;SDS011;37572;52.094;4.870;2024-02-21T02:53:30;13.13;;;4.50;;
51495;SDS011;37572;52.094;4.870;2024-02-21T02:55:55;12.83;;;4.57;;
51495;SDS011;37572;52.094;4.870;2024-02-21T02:58:20;14.83;;;4.23;;
51495;SDS011;37572;52.094;4.870;2024-02-21T03:00:46;8.20;;;4.13;;
51495;SDS011;37572;52.094;4.870;2024-02-21T03:03:11;12.75;;;3.92;;
51495;SDS011;37572;52.094;4.870;2024-02-21T03:05:36;11.27;;;3.87;;
51495;SDS011;37572;52.094;4.870;2024-02-21T03:08:02;14.30;;;4.17;;
51495;SDS011;37572;52.094;4.870;2024-02-21T03:10:31;15.75;;;4.40;;
51495;SDS011;37572;52.094;4.870;2024-02-21T03:12:57;13.90;;;4.25;;
51495;SDS011;37572;52.094;4.870;2024-02-21T03:15:22;11.82;;;3.92;;
51495;SDS011;37572;52.094;4.870;2024-02-21T03:17:47;9.98;;;4.15;;
51495;SDS011;37572;52.094;4.870;2024-02-21T03:20:13;14.63;;;3.77;;
51495;SDS011;37572;52.094;4.870;2024-02-21T03:22:38;12.95;;;4.47;;
51495;SDS011;37572;52.094;4.870;2024-02-21T03:25:04;14.20;;;4.80;;
51495;SDS011;37572;52.094;4.870;2024-02-21T03:27:29;11.65;;;4.45;;
51495;SDS011;37572;52.094;4.870;2024-02-21T03:29:55;14.18;;;5.47;;
51495;SDS011;37572;52.094;4.870;2024-02-21T03:32:20;14.43;;;4.30;;
51495;SDS011;37572;52.094;4.870;2024-02-21T03:34:45;10.82;;;4.45;;
51495;SDS011;37572;52.094;4.870;2024-02-21T03:37:11;13.57;;;5.13;;
51495;SDS011;37572;52.094;4.870;2024-02-21T03:39:38;14.23;;;5.32;;
51495;SDS011;37572;52.094;4.870;2024-02-21T03:42:04;13.57;;;5.83;;
51495;SDS011;37572;52.094;4.870;2024-02-21T03:44:33;11.93;;;5.50;;
51495;SDS011;37572;52.094;4.870;2024-02-21T03:46:59;14.00;;;5.22;;
51495;SDS011;37572;52.094;4.870;2024-02-21T03:49:25;16.17;;;5.00;;
51495;SDS011;37572;52.094;4.870;2024-02-21T03:51:50;12.18;;;4.97;;
51495;SDS011;37572;52.094;4.870;2024-02-21T03:54:16;10.90;;;4.80;;
51495;SDS011;37572;52.094;4.870;2024-02-21T03:56:41;12.07;;;5.63;;
51495;SDS011;37572;52.094;4.870;2024-02-21T03:59:09;14.03;;;5.63;;
51495;SDS011;37572;52.094;4.870;2024-02-21T04:01:35;13.70;;;5.85;;
51495;SDS011;37572;52.094;4.870;2024-02-21T04:04:00;12.43;;;5.85;;
51495;SDS011;37572;52.094;4.870;2024-02-21T04:06:26;11.93;;;4.97;;
51495;SDS011;37572;52.094;4.870;2024-02-21T04:08:51;12.52;;;5.72;;
51495;SDS011;37572;52.094;4.870;2024-02-21T04:11:16;11.93;;;5.83;;
51495;SDS011;37572;52.094;4.870;2024-02-21T04:13:43;12.85;;;5.07;;
51495;SDS011;37572;52.094;4.870;2024-02-21T04:16:09;10.38;;;5.50;;
51495;SDS011;37572;52.094;4.870;2024-02-21T04:18:34;9.15;;;5.28;;
51495;SDS011;37572;52.094;4.870;2024-02-21T04:21:00;13.07;;;6.00;;
51495;SDS011;37572;52.094;4.870;2024-02-21T04:23:25;12.70;;;6.20;;
51495;SDS011;37572;52.094;4.870;2024-02-21T04:25:50;12.07;;;5.23;;
51495;SDS011;37572;52.094;4.870;2024-02-21T04:28:16;11.90;;;5.83;;
51495;SDS011;37572;52.094;4.870;2024-02-21T04:30:41;10.57;;;5.20;;
51495;SDS011;37572;52.094;4.870;2024-02-21T04:33:06;11.73;;;5.60;;
51495;SDS011;37572;52.094;4.870;2024-02-21T04:35:31;12.10;;;5.57;;
51495;SDS011;37572;52.094;4.870;2024-02-21T04:37:57;13.70;;;5.90;;
51495;SDS011;37572;52.094;4.870;2024-02-21T04:40:22;13.03;;;5.87;;
51495;SDS011;37572;52.094;4.870;2024-02-21T04:42:47;13.37;;;5.73;;
51495;SDS011;37572;52.094;4.870;2024-02-21T04:45:13;12.57;;;6.85;;
51495;SDS011;37572;52.094;4.870;2024-02-21T04:47:38;13.55;;;6.85;;
51495;SDS011;37572;52.094;4.870;2024-02-21T04:50:03;12.50;;;6.43;;
51495;SDS011;37572;52.094;4.870;2024-02-21T04:52:29;14.13;;;6.95;;
51495;SDS011;37572;52.094;4.870;2024-02-21T04:54:54;9.82;;;5.95;;
51495;SDS011;37572;52.094;4.870;2024-02-21T04:57:20;11.15;;;6.22;;
51495;SDS011;37572;52.094;4.870;2024-02-21T04:59:46;13.70;;;5.60;;
51495;SDS011;37572;52.094;4.870;2024-02-21T05:02:13;14.05;;;5.90;;
51495;SDS011;37572;52.094;4.870;2024-02-21T05:04:38;10.77;;;6.32;;
51495;SDS011;37572;52.094;4.870;2024-02-21T05:07:04;12.35;;;6.63;;
51495;SDS011;37572;52.094;4.870;2024-02-21T05:09:30;12.13;;;5.53;;
51495;SDS011;37572;52.094;4.870;2024-02-21T05:11:55;10.73;;;5.85;;
51495;SDS011;37572;52.094;4.870;2024-02-21T05:14:21;13.48;;;6.88;;
51495;SDS011;37572;52.094;4.870;2024-02-21T05:16:46;9.68;;;5.68;;
51495;SDS011;37572;52.094;4.870;2024-02-21T05:19:11;11.50;;;6.07;;
51495;SDS011;37572;52.094;4.870;2024-02-21T05:21:37;13.03;;;7.00;;
51495;SDS011;37572;52.094;4.870;2024-02-21T05:24:02;11.97;;;6.93;;
51495;SDS011;37572;52.094;4.870;2024-02-21T05:26:28;11.85;;;5.93;;
51495;SDS011;37572;52.094;4.870;2024-02-21T05:28:53;15.68;;;7.32;;
51495;SDS011;37572;52.094;4.870;2024-02-21T05:31:18;12.98;;;6.70;;
51495;SDS011;37572;52.094;4.870;2024-02-21T05:33:45;12.02;;;6.60;;
51495;SDS011;37572;52.094;4.870;2024-02-21T05:36:11;14.75;;;7.05;;
51495;SDS011;37572;52.094;4.870;2024-02-21T05:38:36;13.25;;;7.55;;
51495;SDS011;37572;52.094;4.870;2024-02-21T05:41:02;14.25;;;6.97;;
51495;SDS011;37572;52.094;4.870;2024-02-21T05:43:28;14.40;;;8.20;;
51495;SDS011;37572;52.094;4.870;2024-02-21T05:45:53;14.02;;;7.47;;
51495;SDS011;37572;52.094;4.870;2024-02-21T05:48:19;12.88;;;7.40;;
51495;SDS011;37572;52.094;4.870;2024-02-21T05:50:45;14.63;;;7.80;;
51495;SDS011;37572;52.094;4.870;2024-02-21T05:53:10;12.67;;;7.33;;
51495;SDS011;37572;52.094;4.870;2024-02-21T05:55:36;13.93;;;8.38;;
51495;SDS011;37572;52.094;4.870;2024-02-21T05:58:01;12.63;;;7.55;;
51495;SDS011;37572;52.094;4.870;2024-02-21T06:00:27;14.90;;;8.07;;
51495;SDS011;37572;52.094;4.870;2024-02-21T06:02:52;14.40;;;7.90;;
51495;SDS011;37572;52.094;4.870;2024-02-21T06:05:18;15.60;;;8.43;;
51495;SDS011;37572;52.094;4.870;2024-02-21T06:07:43;18.27;;;9.15;;
51495;SDS011;37572;52.094;4.870;2024-02-21T06:10:08;16.27;;;8.53;;
51495;SDS011;37572;52.094;4.870;2024-02-21T06:12:34;16.27;;;8.15;;
51495;SDS011;37572;52.094;4.870;2024-02-21T06:14:59;16.27;;;8.30;;
51495;SDS011;37572;52.094;4.870;2024-02-21T06:17:25;18.40;;;9.20;;
51495;SDS011;37572;52.094;4.870;2024-02-21T06:19:50;18.23;;;9.53;;
51495;SDS011;37572;52.094;4.870;2024-02-21T06:22:15;15.55;;;8.43;;
51495;SDS011;37572;52.094;4.870;2024-02-21T06:24:40;21.97;;;9.63;;
51495;SDS011;37572;52.094;4.870;2024-02-21T06:27:06;16.20;;;8.98;;
51495;SDS011;37572;52.094;4.870;2024-02-21T06:29:34;16.17;;;9.07;;
51495;SDS011;37572;52.094;4.870;2024-02-21T06:32:00;20.60;;;9.20;;
51495;SDS011;37572;52.094;4.870;2024-02-21T06:34:26;17.35;;;9.25;;
51495;SDS011;37572;52.094;4.870;2024-02-21T06:36:51;16.85;;;9.10;;
51495;SDS011;37572;52.094;4.870;2024-02-21T06:39:16;19.10;;;8.93;;
51495;SDS011;37572;52.094;4.870;2024-02-21T06:41:42;16.70;;;8.23;;
51495;SDS011;37572;52.094;4.870;2024-02-21T06:44:07;17.92;;;8.65;;
51495;SDS011;37572;52.094;4.870;2024-02-21T06:46:33;17.55;;;8.50;;
51495;SDS011;37572;52.094;4.870;2024-02-21T06:48:59;17.70;;;9.37;;
51495;SDS011;37572;52.094;4.870;2024-02-21T06:51:31;17.00;;;9.20;;
51495;SDS011;37572;52.094;4.870;2024-02-21T06:53:56;17.83;;;8.52;;
51495;SDS011;37572;52.094;4.870;2024-02-21T06:56:23;16.40;;;9.50;;
51495;SDS011;37572;52.094;4.870;2024-02-21T06:58:53;18.73;;;9.23;;
51495;SDS011;37572;52.094;4.870;2024-02-21T07:01:21;17.25;;;8.75;;
51495;SDS011;37572;52.094;4.870;2024-02-21T07:03:47;19.47;;;9.70;;
51495;SDS011;37572;52.094;4.870;2024-02-21T07:06:12;15.43;;;9.13;;
51495;SDS011;37572;52.094;4.870;2024-02-21T07:08:38;19.00;;;10.13;;
51495;SDS011;37572;52.094;4.870;2024-02-21T07:11:04;17.70;;;9.30;;
51495;SDS011;37572;52.094;4.870;2024-02-21T07:13:29;18.23;;;8.73;;
51495;SDS011;37572;52.094;4.870;2024-02-21T07:15:54;19.15;;;9.43;;
51495;SDS011;37572;52.094;4.870;2024-02-21T07:18:20;21.00;;;10.37;;
51495;SDS011;37572;52.094;4.870;2024-02-21T07:20:45;21.98;;;9.63;;
51495;SDS011;37572;52.094;4.870;2024-02-21T07:23:11;21.50;;;8.90;;
51495;SDS011;37572;52.094;4.870;2024-02-21T07:25:36;23.23;;;10.10;;
51495;SDS011;37572;52.094;4.870;2024-02-21T07:28:01;20.55;;;9.25;;
51495;SDS011;37572;52.094;4.870;2024-02-21T07:30:27;21.77;;;10.35;;
51495;SDS011;37572;52.094;4.870;2024-02-21T07:32:53;19.83;;;10.20;;
51495;SDS011;37572;52.094;4.870;2024-02-21T07:35:18;23.53;;;10.37;;
51495;SDS011;37572;52.094;4.870;2024-02-21T07:37:43;20.48;;;9.88;;
51495;SDS011;37572;52.094;4.870;2024-02-21T07:40:15;23.43;;;9.53;;
51495;SDS011;37572;52.094;4.870;2024-02-21T07:42:42;21.05;;;10.10;;
51495;SDS011;37572;52.094;4.870;2024-02-21T07:45:08;20.50;;;10.20;;
51495;SDS011;37572;52.094;4.870;2024-02-21T07:47:34;23.13;;;10.63;;
51495;SDS011;37572;52.094;4.870;2024-02-21T07:49:59;24.53;;;11.30;;
51495;SDS011;37572;52.094;4.870;2024-02-21T07:52:24;24.83;;;10.63;;
51495;SDS011;37572;52.094;4.870;2024-02-21T07:54:50;20.23;;;11.27;;
51495;SDS011;37572;52.094;4.870;2024-02-21T07:57:15;19.65;;;10.10;;
51495;SDS011;37572;52.094;4.870;2024-02-21T07:59:40;21.63;;;10.97;;
51495;SDS011;37572;52.094;4.870;2024-02-21T08:02:06;22.23;;;10.27;;
51495;SDS011;37572;52.094;4.870;2024-02-21T08:04:32;19.00;;;10.57;;
51495;SDS011;37572;52.094;4.870;2024-02-21T08:06:58;21.98;;;9.65;;
51495;SDS011;37572;52.094;4.870;2024-02-21T08:09:26;23.75;;;9.80;;
51495;SDS011;37572;52.094;4.870;2024-02-21T08:11:52;18.80;;;10.55;;
51495;SDS011;37572;52.094;4.870;2024-02-21T08:14:17;22.70;;;10.60;;
51495;SDS011;37572;52.094;4.870;2024-02-21T08:16:42;20.25;;;10.75;;
51495;SDS011;37572;52.094;4.870;2024-02-21T08:19:09;21.38;;;10.45;;
51495;SDS011;37572;52.094;4.870;2024-02-21T08:21:35;21.83;;;9.77;;
51495;SDS011;37572;52.094;4.870;2024-02-21T08:24:01;19.80;;;10.55;;
51495;SDS011;37572;52.094;4.870;2024-02-21T08:26:26;24.92;;;12.70;;
51495;SDS011;37572;52.094;4.870;2024-02-21T08:28:55;21.73;;;10.50;;
51495;SDS011;37572;52.094;4.870;2024-02-21T08:31:23;22.25;;;11.02;;
51495;SDS011;37572;52.094;4.870;2024-02-21T08:33:49;19.05;;;10.60;;
51495;SDS011;37572;52.094;4.870;2024-02-21T08:36:18;21.38;;;10.18;;
51495;SDS011;37572;52.094;4.870;2024-02-21T08:38:44;23.92;;;12.05;;
51495;SDS011;37572;52.094;4.870;2024-02-21T08:41:10;19.60;;;10.88;;
51495;SDS011;37572;52.094;4.870;2024-02-21T08:43:36;21.35;;;11.50;;
51495;SDS011;37572;52.094;4.870;2024-02-21T08:46:01;23.33;;;10.53;;
51495;SDS011;37572;52.094;4.870;2024-02-21T08:48:26;22.07;;;11.77;;
51495;SDS011;37572;52.094;4.870;2024-02-21T08:50:52;20.58;;;10.63;;
51495;SDS011;37572;52.094;4.870;2024-02-21T08:53:18;20.17;;;10.38;;
51495;SDS011;37572;52.094;4.870;2024-02-21T08:55:43;23.93;;;12.23;;
51495;SDS011;37572;52.094;4.870;2024-02-21T08:58:09;22.27;;;11.18;;
51495;SDS011;37572;52.094;4.870;2024-02-21T09:00:34;23.50;;;10.93;;
51495;SDS011;37572;52.094;4.870;2024-02-21T09:03:00;22.63;;;11.38;;
51495;SDS011;37572;52.094;4.870;2024-02-21T09:05:25;24.88;;;12.50;;
51495;SDS011;37572;52.094;4.870;2024-02-21T09:07:51;26.30;;;12.18;;
51495;SDS011;37572;52.094;4.870;2024-02-21T09:10:16;23.05;;;11.52;;
51495;SDS011;37572;52.094;4.870;2024-02-21T09:12:42;23.98;;;12.10;;
51495;SDS011;37572;52.094;4.870;2024-02-21T09:15:07;21.73;;;11.30;;
51495;SDS011;37572;52.094;4.870;2024-02-21T09:17:33;22.13;;;11.10;;
51495;SDS011;37572;52.094;4.870;2024-02-21T09:19:58;20.97;;;10.63;;
51495;SDS011;37572;52.094;4.870;2024-02-21T09:22:28;21.27;;;11.25;;
51495;SDS011;37572;52.094;4.870;2024-02-21T09:24:53;19.03;;;11.77;;
51495;SDS011;37572;52.094;4.870;2024-02-21T09:27:18;22.88;;;11.32;;
51495;SDS011;37572;52.094;4.870;2024-02-21T09:29:44;19.73;;;10.40;;
51495;SDS011;37572;52.094;4.870;2024-02-21T09:32:09;21.30;;;11.47;;
51495;SDS011;37572;52.094;4.870;2024-02-21T09:34:34;22.42;;;11.05;;
51495;SDS011;37572;52.094;4.870;2024-02-21T09:37:00;18.97;;;11.00;;
51495;SDS011;37572;52.094;4.870;2024-02-21T09:39:25;26.45;;;12.07;;
51495;SDS011;37572;52.094;4.870;2024-02-21T09:41:53;20.15;;;10.65;;
51495;SDS011;37572;52.094;4.870;2024-02-21T09:44:21;22.60;;;11.27;;
51495;SDS011;37572;52.094;4.870;2024-02-21T09:46:52;20.95;;;10.43;;
51495;SDS011;37572;52.094;4.870;2024-02-21T09:51:53;17.80;;;9.98;;
51495;SDS011;37572;52.094;4.870;2024-02-21T09:54:20;20.48;;;10.15;;
51495;SDS011;37572;52.094;4.870;2024-02-21T09:56:46;17.92;;;8.80;;
51495;SDS011;37572;52.094;4.870;2024-02-21T09:59:14;19.98;;;9.13;;
51495;SDS011;37572;52.094;4.870;2024-02-21T10:01:41;17.05;;;9.63;;
51495;SDS011;37572;52.094;4.870;2024-02-21T10:04:12;17.65;;;9.60;;
51495;SDS011;37572;52.094;4.870;2024-02-21T10:06:37;16.92;;;8.70;;
51495;SDS011;37572;52.094;4.870;2024-02-21T10:09:04;16.08;;;9.25;;
51495;SDS011;37572;52.094;4.870;2024-02-21T10:11:31;18.63;;;9.35;;
51495;SDS011;37572;52.094;4.870;2024-02-21T10:14:03;18.55;;;9.02;;
51495;SDS011;37572;52.094;4.870;2024-02-21T10:16:30;17.10;;;8.75;;
51495;SDS011;37572;52.094;4.870;2024-02-21T10:18:55;16.08;;;8.88;;
51495;SDS011;37572;52.094;4.870;2024-02-21T10:21:20;16.80;;;8.77;;
51495;SDS011;37572;52.094;4.870;2024-02-21T10:23:48;13.63;;;8.30;;
51495;SDS011;37572;52.094;4.870;2024-02-21T10:26:17;12.85;;;7.50;;
51495;SDS011;37572;52.094;4.870;2024-02-21T10:28:44;16.00;;;8.55;;
51495;SDS011;37572;52.094;4.870;2024-02-21T10:31:20;13.90;;;8.38;;
51495;SDS011;37572;52.094;4.870;2024-02-21T10:33:53;13.85;;;7.60;;
51495;SDS011;37572;52.094;4.870;2024-02-21T10:36:19;15.35;;;8.93;;
51495;SDS011;37572;52.094;4.870;2024-02-21T10:38:44;13.40;;;7.90;;
51495;SDS011;37572;52.094;4.870;2024-02-21T10:41:10;17.70;;;8.55;;
51495;SDS011;37572;52.094;4.870;2024-02-21T10:43:40;14.55;;;8.73;;
51495;SDS011;37572;52.094;4.870;2024-02-21T10:46:06;11.70;;;7.53;;
51495;SDS011;37572;52.094;4.870;2024-02-21T10:48:37;12.68;;;8.20;;
51495;SDS011;37572;52.094;4.870;2024-02-21T10:56:37;15.75;;;7.95;;
51495;SDS011;37572;52.094;4.870;2024-02-21T10:59:05;12.00;;;8.52;;
51495;SDS011;37572;52.094;4.870;2024-02-21T11:01:31;12.40;;;8.13;;
51495;SDS011;37572;52.094;4.870;2024-02-21T11:03:58;13.15;;;7.43;;
51495;SDS011;37572;52.094;4.870;2024-02-21T11:06:26;12.00;;;7.47;;
51495;SDS011;37572;52.094;4.870;2024-02-21T11:09:06;14.20;;;8.20;;
51495;SDS011;37572;52.094;4.870;2024-02-21T11:11:35;10.52;;;6.95;;
51495;SDS011;37572;52.094;4.870;2024-02-21T11:14:18;10.75;;;7.22;;
51495;SDS011;37572;52.094;4.870;2024-02-21T11:16:45;14.68;;;7.88;;
51495;SDS011;37572;52.094;4.870;2024-02-21T11:21:46;11.38;;;7.90;;
51495;SDS011;37572;52.094;4.870;2024-02-21T11:24:28;12.80;;;9.05;;
51495;SDS011;37572;52.094;4.870;2024-02-21T11:26:56;12.93;;;8.65;;
51495;SDS011;37572;52.094;4.870;2024-02-21T11:29:33;15.38;;;9.27;;
51495;SDS011;37572;52.094;4.870;2024-02-21T11:31:58;13.70;;;9.25;;
51495;SDS011;37572;52.094;4.870;2024-02-21T11:34:23;14.13;;;9.27;;
51495;SDS011;37572;52.094;4.870;2024-02-21T11:36:49;17.30;;;10.13;;
51495;SDS011;37572;52.094;4.870;2024-02-21T11:39:19;14.18;;;10.15;;
51495;SDS011;37572;52.094;4.870;2024-02-21T11:42:05;14.20;;;9.45;;
51495;SDS011;37572;52.094;4.870;2024-02-21T11:44:34;18.15;;;10.50;;
51495;SDS011;37572;52.094;4.870;2024-02-21T11:47:02;17.15;;;10.60;;
51495;SDS011;37572;52.094;4.870;2024-02-21T11:49:28;16.20;;;10.73;;
51495;SDS011;37572;52.094;4.870;2024-02-21T11:51:58;14.25;;;9.52;;
51495;SDS011;37572;52.094;4.870;2024-02-21T11:54:24;13.85;;;8.93;;
51495;SDS011;37572;52.094;4.870;2024-02-21T11:56:49;13.30;;;9.37;;
51495;SDS011;37572;52.094;4.870;2024-02-21T11:59:15;13.37;;;8.90;;
51495;SDS011;37572;52.094;4.870;2024-02-21T12:01:40;13.03;;;9.53;;
51495;SDS011;37572;52.094;4.870;2024-02-21T12:04:05;14.23;;;9.07;;
51495;SDS011;37572;52.094;4.870;2024-02-21T12:06:32;15.07;;;8.45;;
51495;SDS011;37572;52.094;4.870;2024-02-21T12:08:58;11.60;;;8.23;;
51495;SDS011;37572;52.094;4.870;2024-02-21T12:11:23;12.52;;;9.77;;
51495;SDS011;37572;52.094;4.870;2024-02-21T12:13:58;12.80;;;8.80;;
51495;SDS011;37572;52.094;4.870;2024-02-21T12:16:26;12.10;;;8.70;;
51495;SDS011;37572;52.094;4.870;2024-02-21T12:18:53;12.30;;;7.72;;
51495;SDS011;37572;52.094;4.870;2024-02-21T12:21:18;13.68;;;9.40;;
51495;SDS011;37572;52.094;4.870;2024-02-21T12:23:44;12.77;;;9.10;;
51495;SDS011;37572;52.094;4.870;2024-02-21T12:26:12;9.90;;;7.90;;
51495;SDS011;37572;52.094;4.870;2024-02-21T12:28:37;11.75;;;9.15;;
51495;SDS011;37572;52.094;4.870;2024-02-21T12:31:02;10.87;;;8.07;;
51495;SDS011;37572;52.094;4.870;2024-02-21T12:33:29;11.70;;;8.68;;
51495;SDS011;37572;52.094;4.870;2024-02-21T12:35:54;10.48;;;8.38;;
51495;SDS011;37572;52.094;4.870;2024-02-21T12:38:20;14.43;;;8.52;;
51495;SDS011;37572;52.094;4.870;2024-02-21T12:40:45;12.77;;;7.93;;
51495;SDS011;37572;52.094;4.870;2024-02-21T12:43:11;14.63;;;7.13;;
51495;SDS011;37572;52.094;4.870;2024-02-21T12:45:36;8.77;;;6.28;;
51495;SDS011;37572;52.094;4.870;2024-02-21T12:48:01;10.23;;;7.57;;
51495;SDS011;37572;52.094;4.870;2024-02-21T12:50:27;11.73;;;7.50;;
51495;SDS011;37572;52.094;4.870;2024-02-21T12:52:52;10.23;;;6.37;;
51495;SDS011;37572;52.094;4.870;2024-02-21T12:55:17;11.13;;;6.75;;
51495;SDS011;37572;52.094;4.870;2024-02-21T12:57:42;9.83;;;7.87;;
51495;SDS011;37572;52.094;4.870;2024-02-21T13:00:08;10.13;;;6.90;;
51495;SDS011;37572;52.094;4.870;2024-02-21T13:02:34;9.73;;;6.88;;
51495;SDS011;37572;52.094;4.870;2024-02-21T13:05:00;9.77;;;6.43;;
51495;SDS011;37572;52.094;4.870;2024-02-21T13:07:27;11.68;;;7.65;;
51495;SDS011;37572;52.094;4.870;2024-02-21T13:09:53;10.18;;;6.68;;
51495;SDS011;37572;52.094;4.870;2024-02-21T13:12:19;10.50;;;7.60;;
51495;SDS011;37572;52.094;4.870;2024-02-21T13:14:44;9.53;;;7.17;;
51495;SDS011;37572;52.094;4.870;2024-02-21T13:17:09;11.60;;;7.60;;
51495;SDS011;37572;52.094;4.870;2024-02-21T13:19:35;10.27;;;7.82;;
51495;SDS011;37572;52.094;4.870;2024-02-21T13:22:00;10.43;;;8.17;;
51495;SDS011;37572;52.094;4.870;2024-02-21T13:24:27;11.20;;;8.10;;
51495;SDS011;37572;52.094;4.870;2024-02-21T13:26:52;11.95;;;8.55;;
51495;SDS011;37572;52.094;4.870;2024-02-21T13:29:19;12.70;;;9.43;;
51495;SDS011;37572;52.094;4.870;2024-02-21T13:31:45;11.25;;;8.38;;
51495;SDS011;37572;52.094;4.870;2024-02-21T13:34:10;11.88;;;7.93;;
51495;SDS011;37572;52.094;4.870;2024-02-21T13:36:36;14.18;;;8.07;;
51495;SDS011;37572;52.094;4.870;2024-02-21T13:39:01;10.07;;;7.97;;
51495;SDS011;37572;52.094;4.870;2024-02-21T13:41:26;11.30;;;7.25;;
51495;SDS011;37572;52.094;4.870;2024-02-21T13:43:52;11.45;;;7.57;;
51495;SDS011;37572;52.094;4.870;2024-02-21T13:46:18;8.23;;;7.03;;
51495;SDS011;37572;52.094;4.870;2024-02-21T13:48:43;13.03;;;8.63;;
51495;SDS011;37572;52.094;4.870;2024-02-21T13:51:08;11.20;;;8.07;;
51495;SDS011;37572;52.094;4.870;2024-02-21T13:53:34;12.85;;;9.75;;
51495;SDS011;37572;52.094;4.870;2024-02-21T13:55:59;13.18;;;9.45;;
51495;SDS011;37572;52.094;4.870;2024-02-21T13:58:25;12.13;;;7.45;;
51495;SDS011;37572;52.094;4.870;2024-02-21T14:00:52;10.30;;;6.97;;
51495;SDS011;37572;52.094;4.870;2024-02-21T14:03:18;10.30;;;6.72;;
51495;SDS011;37572;52.094;4.870;2024-02-21T14:05:45;8.75;;;6.28;;
51495;SDS011;37572;52.094;4.870;2024-02-21T14:08:10;11.77;;;8.02;;
51495;SDS011;37572;52.094;4.870;2024-02-21T14:10:36;12.50;;;8.23;;
51495;SDS011;37572;52.094;4.870;2024-02-21T14:13:02;12.05;;;8.43;;
51495;SDS011;37572;52.094;4.870;2024-02-21T14:15:27;9.75;;;7.13;;
51495;SDS011;37572;52.094;4.870;2024-02-21T14:17:52;10.43;;;7.23;;
51495;SDS011;37572;52.094;4.870;2024-02-21T14:20:18;9.87;;;6.70;;
51495;SDS011;37572;52.094;4.870;2024-02-21T14:22:43;10.60;;;7.53;;
51495;SDS011;37572;52.094;4.870;2024-02-21T14:25:08;11.07;;;9.30;;
51495;SDS011;37572;52.094;4.870;2024-02-21T14:27:34;11.90;;;9.40;;
51495;SDS011;37572;52.094;4.870;2024-02-21T14:30:01;12.60;;;9.07;;
51495;SDS011;37572;52.094;4.870;2024-02-21T14:32:27;10.10;;;8.35;;
51495;SDS011;37572;52.094;4.870;2024-02-21T14:34:52;11.65;;;8.70;;
51495;SDS011;37572;52.094;4.870;2024-02-21T14:37:18;11.50;;;8.10;;